createdAt,value
2023-03-11T00:01:31.441Z,23.80
2023-03-11T00:04:01.062Z,21.60
2023-03-11T00:06:29.858Z,24.10
2023-03-11T00:09:01.611Z,22.50
2023-03-11T00:11:31.275Z,22.90
2023-03-11T00:14:02.435Z,22.10
2023-03-11T00:16:31.054Z,25.30
2023-03-11T00:19:00.656Z,26.50
2023-03-11T00:21:29.193Z,23.20
2023-03-11T00:24:01.318Z,25.80
2023-03-11T00:26:30.989Z,25.10
2023-03-11T00:28:59.776Z,26.70
2023-03-11T00:31:29.360Z,23.80
2023-03-11T00:34:17.645Z,25.80
2023-03-11T00:36:47.264Z,22.30
2023-03-11T00:39:15.928Z,23.10
2023-03-11T00:41:46.140Z,25.00
2023-03-11T00:44:15.610Z,27.20
2023-03-11T00:46:44.106Z,24.30
2023-03-11T00:49:12.610Z,27.10
2023-03-11T00:51:41.026Z,23.70
2023-03-11T00:54:09.864Z,21.30
2023-03-11T00:56:39.024Z,27.80
2023-03-11T00:59:13.297Z,23.00
2023-03-11T01:01:42.426Z,23.30
2023-03-11T01:04:11.940Z,26.00
2023-03-11T01:06:45.636Z,24.60
2023-03-11T01:09:14.645Z,24.40
2023-03-11T01:11:45.810Z,21.40
2023-03-11T01:14:15.854Z,22.70
2023-03-11T01:16:46.830Z,24.40
2023-03-11T01:19:18.181Z,24.00
2023-03-11T01:21:46.968Z,25.80
2023-03-11T01:24:15.906Z,26.20
2023-03-11T01:26:49.100Z,23.50
2023-03-11T01:29:19.157Z,19.90
2023-03-11T01:31:47.553Z,23.70
2023-03-11T01:34:16.003Z,28.10
2023-03-11T01:36:48.620Z,25.30
2023-03-11T01:39:17.451Z,24.00
2023-03-11T01:41:45.972Z,23.00
2023-03-11T01:44:14.722Z,24.10
2023-03-11T01:46:53.191Z,24.10
2023-03-11T01:49:26.530Z,27.20
2023-03-11T01:52:00.568Z,25.20
2023-03-11T01:54:37.865Z,23.30
2023-03-11T01:57:07.977Z,24.90
2023-03-11T01:59:42.077Z,23.90
2023-03-11T02:02:25.028Z,22.30
2023-03-11T02:04:53.922Z,23.80
2023-03-11T02:07:25.045Z,23.70
2023-03-11T02:10:02.364Z,22.30
2023-03-11T02:12:32.493Z,24.60
2023-03-11T02:15:01.652Z,25.70
2023-03-11T02:17:34.796Z,23.10
2023-03-11T02:20:41.608Z,24.60
2023-03-11T02:23:18.986Z,22.00
2023-03-11T02:25:57.322Z,24.20
2023-03-11T02:28:30.003Z,22.60
2023-03-11T02:30:59.856Z,22.90
2023-03-11T02:33:30.341Z,26.30
2023-03-11T02:35:59.124Z,47.40
2023-03-11T02:38:28.352Z,31.80
2023-03-11T02:41:01.147Z,28.40
2023-03-11T02:43:38.016Z,27.40
2023-03-11T02:46:06.948Z,27.30
2023-03-11T02:48:35.844Z,29.70
2023-03-11T02:51:04.820Z,33.00
2023-03-11T02:53:39.957Z,31.70
2023-03-11T02:56:08.542Z,29.50
2023-03-11T02:58:37.336Z,26.60
2023-03-11T03:01:05.900Z,24.40
2023-03-11T03:03:35.232Z,24.90
2023-03-11T03:06:04.127Z,24.40
2023-03-11T03:08:33.340Z,23.00
2023-03-11T03:11:03.454Z,25.30
2023-03-11T03:13:32.649Z,20.20
2023-03-11T03:16:03.948Z,24.00
2023-03-11T03:18:34.171Z,22.70
2023-03-11T03:21:07.749Z,25.40
2023-03-11T03:23:37.912Z,24.20
2023-03-11T03:26:06.655Z,22.40
2023-03-11T03:28:38.969Z,23.00
2023-03-11T03:31:09.529Z,25.00
2023-03-11T03:33:38.836Z,21.70
2023-03-11T03:36:09.486Z,23.90
2023-03-11T03:38:42.842Z,20.90
2023-03-11T03:41:14.906Z,25.00
2023-03-11T03:43:43.534Z,22.90
2023-03-11T03:46:12.094Z,22.30
2023-03-11T03:48:43.490Z,21.10
2023-03-11T03:51:13.623Z,21.70
2023-03-11T03:53:56.520Z,24.90
2023-03-11T03:56:26.760Z,27.50
2023-03-11T03:58:55.553Z,27.80
2023-03-11T04:01:25.707Z,29.40
2023-03-11T04:03:54.382Z,24.50
2023-03-11T04:06:25.912Z,22.40
2023-03-11T04:09:08.021Z,25.30
2023-03-11T04:11:38.549Z,23.80
2023-03-11T04:14:08.646Z,22.90
2023-03-11T04:16:47.232Z,19.90
2023-03-11T04:19:16.090Z,25.90
2023-03-11T04:21:45.303Z,24.30
2023-03-11T04:24:17.142Z,26.00
2023-03-11T04:26:45.960Z,25.50
2023-03-11T04:29:17.116Z,24.80
2023-03-11T04:31:49.519Z,22.40
2023-03-11T04:34:21.390Z,26.00
2023-03-11T04:36:54.297Z,26.40
2023-03-11T04:39:25.249Z,27.00
2023-03-11T04:41:55.377Z,25.30
2023-03-11T04:44:25.328Z,25.20
2023-03-11T04:46:54.628Z,25.70
2023-03-11T04:49:23.476Z,24.60
2023-03-11T04:51:52.364Z,23.30
2023-03-11T04:54:22.474Z,21.80
2023-03-11T04:56:51.270Z,22.70
2023-03-11T04:59:26.725Z,21.60
2023-03-11T05:01:55.680Z,22.30
2023-03-11T05:04:24.506Z,22.20
2023-03-11T05:06:53.998Z,20.70
2023-03-11T05:09:22.993Z,20.30
2023-03-11T05:11:51.564Z,22.00
2023-03-11T05:14:22.750Z,19.30
2023-03-11T05:16:52.510Z,18.50
2023-03-11T05:19:35.425Z,16.60
2023-03-11T05:22:12.180Z,19.90
2023-03-11T05:24:42.143Z,19.60
2023-03-11T05:27:11.992Z,20.10
2023-03-11T05:29:41.041Z,19.10
2023-03-11T05:32:12.339Z,17.90
2023-03-11T05:34:42.080Z,20.50
2023-03-11T05:37:11.108Z,27.90
2023-03-11T05:39:43.859Z,23.80
2023-03-11T05:42:12.959Z,22.20
2023-03-11T05:44:42.222Z,19.60
2023-03-11T05:47:11.210Z,18.90
2023-03-11T05:49:40.098Z,18.00
2023-03-11T05:52:08.797Z,23.80
2023-03-11T05:54:37.974Z,17.60
2023-03-11T05:57:08.610Z,21.30
2023-03-11T05:59:38.138Z,21.50
2023-03-11T06:02:07.574Z,19.00
2023-03-11T06:04:38.289Z,19.00
2023-03-11T06:07:08.545Z,18.40
2023-03-11T06:09:39.944Z,23.60
2023-03-11T06:12:14.652Z,20.60
2023-03-11T06:15:08.048Z,20.80
2023-03-11T06:17:37.581Z,19.80
2023-03-11T06:20:08.191Z,20.50
2023-03-11T06:22:40.358Z,20.60
2023-03-11T06:25:09.681Z,23.50
2023-03-11T06:27:40.935Z,19.90
2023-03-11T06:30:11.012Z,20.90
2023-03-11T06:32:51.372Z,19.00
2023-03-11T06:35:21.240Z,18.40
2023-03-11T06:37:49.981Z,22.10
2023-03-11T06:40:18.997Z,17.70
2023-03-11T06:42:50.527Z,17.00
2023-03-11T06:45:21.031Z,21.60
2023-03-11T06:47:51.076Z,22.10
2023-03-11T06:50:20.196Z,19.40
2023-03-11T06:52:50.256Z,24.40
2023-03-11T06:55:18.850Z,24.10
2023-03-11T06:57:47.668Z,22.10
2023-03-11T07:00:16.845Z,20.70
2023-03-11T07:02:50.395Z,24.10
2023-03-11T07:05:19.259Z,24.50
2023-03-11T07:07:48.969Z,23.10
2023-03-11T07:10:21.141Z,23.90
2023-03-11T07:12:50.866Z,21.60
2023-03-11T07:15:20.185Z,21.00
2023-03-11T07:17:50.964Z,23.30
2023-03-11T07:20:20.318Z,21.00
2023-03-11T07:22:48.820Z,18.70
2023-03-11T07:25:17.273Z,20.20
2023-03-11T07:27:46.744Z,20.70
2023-03-11T07:30:15.892Z,20.60
2023-03-11T07:32:45.312Z,25.30
2023-03-11T07:35:14.163Z,19.60
2023-03-11T07:37:45.663Z,23.80
2023-03-11T07:40:14.289Z,20.50
2023-03-11T07:42:42.749Z,23.40
2023-03-11T07:45:13.155Z,23.80
2023-03-11T07:47:41.481Z,26.90
2023-03-11T07:50:12.116Z,20.40
2023-03-11T07:52:45.081Z,20.20
2023-03-11T07:55:20.570Z,20.90
2023-03-11T07:57:49.762Z,19.80
2023-03-11T08:00:18.965Z,20.00
2023-03-11T08:02:48.558Z,18.50
2023-03-11T08:05:18.730Z,17.50
2023-03-11T08:07:47.391Z,18.10
2023-03-11T08:10:15.964Z,16.40
2023-03-11T08:12:46.434Z,16.60
2023-03-11T08:15:15.167Z,16.40
2023-03-11T08:17:44.622Z,13.60
2023-03-11T08:20:13.720Z,15.40
2023-03-11T08:22:55.687Z,13.80
2023-03-11T08:25:26.009Z,12.90
2023-03-11T08:27:54.483Z,12.70
2023-03-11T08:30:23.200Z,12.50
2023-03-11T08:33:05.281Z,11.90
2023-03-11T08:35:34.313Z,11.80
2023-03-11T08:38:03.985Z,14.00
2023-03-11T08:40:32.507Z,13.30
2023-03-11T08:43:01.068Z,16.50
2023-03-11T08:45:30.709Z,16.40
2023-03-11T08:47:59.304Z,8.90
2023-03-11T08:50:27.884Z,11.70
2023-03-11T08:53:00.657Z,12.50
2023-03-11T08:55:29.561Z,11.20
2023-03-11T08:57:58.349Z,18.00
2023-03-11T09:00:26.941Z,17.00
2023-03-11T09:02:56.481Z,15.30
2023-03-11T09:05:25.196Z,13.40
2023-03-11T09:07:54.184Z,13.60
2023-03-11T09:10:23.298Z,17.70
2023-03-11T09:12:51.949Z,13.90
2023-03-11T09:15:22.905Z,14.20
2023-03-11T09:17:52.110Z,12.60
2023-03-11T09:20:22.186Z,16.20
2023-03-11T09:22:51.912Z,13.20
2023-03-11T09:25:21.069Z,14.10
2023-03-11T09:27:50.038Z,13.70
2023-03-11T09:30:18.804Z,10.70
2023-03-11T09:32:48.304Z,14.00
2023-03-11T09:35:17.260Z,13.00
2023-03-11T09:37:46.890Z,13.90
2023-03-11T09:40:17.721Z,11.00
2023-03-11T09:43:16.537Z,14.00
2023-03-11T09:45:58.744Z,18.00
2023-03-11T09:48:30.176Z,18.00
2023-03-11T09:51:00.846Z,19.00
2023-03-11T09:53:37.434Z,17.90
2023-03-11T09:56:07.602Z,16.20
2023-03-11T09:58:39.842Z,20.00
2023-03-11T10:01:24.246Z,17.90
2023-03-11T10:03:54.754Z,20.50
2023-03-11T10:06:25.141Z,16.60
2023-03-11T10:09:03.487Z,17.60
2023-03-11T10:11:49.452Z,18.50
2023-03-11T10:14:36.524Z,17.00
2023-03-11T10:18:05.357Z,17.50
2023-03-11T10:20:53.137Z,18.30
2023-03-11T10:23:51.124Z,19.10
2023-03-11T10:26:33.141Z,16.30
2023-03-11T10:29:10.741Z,22.70
2023-03-11T10:31:44.059Z,15.90
2023-03-11T10:34:26.837Z,18.50
2023-03-11T10:37:02.175Z,20.40
2023-03-11T10:39:32.059Z,26.70
2023-03-11T10:42:02.309Z,20.00
2023-03-11T10:44:34.430Z,21.70
2023-03-11T10:47:04.398Z,20.00
2023-03-11T10:49:33.742Z,17.60
2023-03-11T10:52:02.210Z,18.70
2023-03-11T10:54:46.391Z,14.80
2023-03-11T10:57:29.350Z,17.10
2023-03-11T11:00:12.683Z,18.20
2023-03-11T11:03:19.169Z,18.30
2023-03-11T11:06:01.458Z,18.60
2023-03-11T11:08:30.474Z,15.60
2023-03-11T11:11:01.106Z,15.70
2023-03-11T11:13:32.823Z,15.80
2023-03-11T11:16:05.290Z,10.60
2023-03-11T11:18:44.936Z,14.10
2023-03-11T11:21:27.088Z,10.10
2023-03-11T11:24:18.796Z,13.00
2023-03-11T11:27:11.900Z,12.50
2023-03-11T11:29:41.348Z,10.30
2023-03-11T11:32:19.442Z,10.00
2023-03-11T11:34:59.909Z,11.20
2023-03-11T11:37:35.467Z,9.40
2023-03-11T11:40:11.692Z,11.90
2023-03-11T11:42:41.773Z,10.80
2023-03-11T11:45:17.169Z,8.70
2023-03-11T11:47:49.345Z,9.50
2023-03-11T11:50:30.437Z,12.00
2023-03-11T11:53:06.258Z,14.60
2023-03-11T11:55:50.437Z,11.30
2023-03-11T11:58:21.005Z,11.40
2023-03-11T12:00:49.694Z,11.30
2023-03-11T12:03:22.277Z,9.80
2023-03-11T12:05:59.234Z,7.30
2023-03-11T12:08:48.789Z,10.80
2023-03-11T12:15:18.549Z,9.80
2023-03-11T12:17:48.260Z,13.30
2023-03-11T12:20:24.191Z,16.70
2023-03-11T12:23:00.516Z,11.70
2023-03-11T12:25:48.140Z,13.30
2023-03-11T12:28:26.127Z,8.60
2023-03-11T12:30:56.911Z,9.70
2023-03-11T12:33:32.146Z,12.70
2023-03-11T12:36:03.070Z,12.60
2023-03-11T12:38:37.474Z,11.30
2023-03-11T12:41:33.830Z,8.80
2023-03-11T12:44:04.255Z,11.90
2023-03-11T12:47:06.021Z,9.90
2023-03-11T12:49:50.617Z,10.40
2023-03-11T12:52:26.643Z,12.20
2023-03-11T12:54:59.269Z,10.90
2023-03-11T12:57:46.949Z,14.90
2023-03-11T13:00:57.332Z,12.50
2023-03-11T13:03:26.136Z,11.20
2023-03-11T13:05:58.255Z,15.20
2023-03-11T13:08:49.609Z,12.30
2023-03-11T13:11:33.225Z,12.70
2023-03-11T13:14:42.852Z,12.90
2023-03-11T13:17:31.126Z,13.10
2023-03-11T13:20:03.525Z,10.30
2023-03-11T13:22:53.319Z,12.00
2023-03-11T13:26:00.515Z,15.00
2023-03-11T13:29:04.400Z,14.10
2023-03-11T13:31:43.498Z,13.70
2023-03-11T13:34:17.657Z,14.10
2023-03-11T13:36:53.264Z,20.70
2023-03-11T13:39:31.575Z,18.50
2023-03-11T13:42:15.940Z,20.10
2023-03-11T13:44:44.582Z,13.50
2023-03-11T13:47:17.360Z,12.20
2023-03-11T13:50:06.520Z,11.80
2023-03-11T13:52:50.523Z,12.30
2023-03-11T13:55:28.468Z,8.90
2023-03-11T13:57:59.601Z,16.10
2023-03-11T14:00:31.779Z,11.70
2023-03-11T14:03:05.547Z,15.50
2023-03-11T14:05:36.024Z,11.90
2023-03-11T14:08:21.679Z,13.30
2023-03-11T14:10:55.232Z,12.30
2023-03-11T14:13:33.776Z,11.20
2023-03-11T14:16:30.829Z,14.60
2023-03-11T14:19:28.804Z,11.10
2023-03-11T14:22:07.864Z,9.30
2023-03-11T14:24:36.720Z,13.20
2023-03-11T14:27:09.345Z,14.70
2023-03-11T14:29:44.588Z,9.10
2023-03-11T14:32:25.971Z,15.20
2023-03-11T14:34:54.829Z,13.20
2023-03-11T14:37:36.710Z,17.90
2023-03-11T14:40:23.500Z,13.00
2023-03-11T14:42:54.327Z,10.50
2023-03-11T14:45:28.699Z,12.20
2023-03-11T14:48:09.569Z,12.70
2023-03-11T14:50:39.193Z,18.50
2023-03-11T14:53:09.291Z,16.30
2023-03-11T14:55:55.328Z,25.10
2023-03-11T14:58:40.318Z,14.80
2023-03-11T15:01:14.751Z,13.80
2023-03-11T15:03:59.975Z,11.70
2023-03-11T15:06:29.926Z,16.30
2023-03-11T15:09:02.735Z,11.30
2023-03-11T15:11:32.938Z,13.10
2023-03-11T15:14:27.210Z,16.70
2023-03-11T15:16:56.657Z,17.90
2023-03-11T15:19:28.612Z,12.90
2023-03-11T15:21:59.909Z,12.30
2023-03-11T15:24:29.919Z,14.50
2023-03-11T15:27:02.270Z,15.90
2023-03-11T15:29:33.844Z,11.70
2023-03-11T15:32:25.250Z,11.80
2023-03-11T15:35:10.989Z,13.10
2023-03-11T15:37:41.834Z,13.70
2023-03-11T15:40:44.338Z,15.80
2023-03-11T15:43:15.482Z,17.60
2023-03-11T15:45:44.446Z,15.70
2023-03-11T15:48:13.547Z,13.70
2023-03-11T15:50:54.340Z,14.70
2023-03-11T15:53:25.625Z,13.80
2023-03-11T15:55:55.384Z,13.20
2023-03-11T15:58:24.002Z,7.50
2023-03-11T16:00:54.632Z,16.50
2023-03-11T16:03:23.638Z,13.90
2023-03-11T16:05:54.662Z,13.90
2023-03-11T16:08:25.521Z,13.60
2023-03-11T16:10:54.086Z,13.20
2023-03-11T16:13:25.377Z,16.70
2023-03-11T16:15:54.325Z,15.20
2023-03-11T16:18:23.074Z,15.10
2023-03-11T16:20:54.713Z,13.00
2023-03-11T16:23:26.096Z,16.00
2023-03-11T16:26:00.394Z,16.60
2023-03-11T16:28:30.030Z,11.90
2023-03-11T16:30:58.679Z,15.60
2023-03-11T16:33:28.123Z,13.20
2023-03-11T16:35:57.140Z,12.30
2023-03-11T16:38:32.297Z,14.40
2023-03-11T16:41:02.235Z,11.10
2023-03-11T16:43:30.990Z,10.90
2023-03-11T16:46:01.755Z,15.80
2023-03-11T16:48:30.582Z,12.80
2023-03-11T16:50:59.166Z,11.90
2023-03-11T16:53:27.877Z,12.80
2023-03-11T16:56:01.948Z,17.80
2023-03-11T16:58:31.118Z,14.70
2023-03-11T17:01:00.241Z,12.00
2023-03-11T17:03:34.493Z,17.70
2023-03-11T17:06:10.078Z,18.90
2023-03-11T17:08:39.711Z,11.60
2023-03-11T17:11:23.371Z,16.80
2023-03-11T17:13:52.158Z,16.30
2023-03-11T17:16:21.071Z,13.50
2023-03-11T17:18:51.280Z,22.40
2023-03-11T17:21:19.919Z,16.50
2023-03-11T17:23:50.440Z,16.90
2023-03-11T17:26:26.921Z,14.60
2023-03-11T17:28:56.256Z,16.50
2023-03-11T17:31:25.062Z,12.60
2023-03-11T17:33:54.671Z,13.20
2023-03-11T17:36:23.312Z,14.90
2023-03-11T17:38:54.164Z,13.10
2023-03-11T17:41:23.716Z,13.50
2023-03-11T17:43:52.397Z,19.50
2023-03-11T17:46:22.835Z,15.20
2023-03-11T17:48:51.544Z,16.50
2023-03-11T17:51:22.000Z,16.00
2023-03-11T17:53:51.035Z,19.10
2023-03-11T17:56:22.088Z,17.90
2023-03-11T17:58:52.151Z,18.10
2023-03-11T18:01:22.909Z,17.40
2023-03-11T18:03:52.052Z,17.70
2023-03-11T18:06:21.096Z,16.90
2023-03-11T18:08:55.334Z,17.70
2023-03-11T18:11:28.226Z,16.50
2023-03-11T18:13:56.973Z,15.80
2023-03-11T18:16:28.254Z,16.40
2023-03-11T18:18:57.460Z,21.20
2023-03-11T18:21:28.584Z,19.60
2023-03-11T18:24:00.246Z,15.40
2023-03-11T18:26:31.660Z,17.50
2023-03-11T18:29:01.029Z,14.50
2023-03-11T18:31:34.920Z,16.20
2023-03-11T18:34:05.378Z,20.90
2023-03-11T18:36:36.173Z,19.90
2023-03-11T18:39:11.610Z,19.90
2023-03-11T18:41:43.140Z,20.00
2023-03-11T18:44:16.496Z,19.40
2023-03-11T18:46:46.762Z,17.90
2023-03-11T18:49:15.727Z,20.70
2023-03-11T18:51:44.309Z,15.80
2023-03-11T18:54:12.924Z,16.60
2023-03-11T18:56:41.483Z,15.60
2023-03-11T18:59:12.446Z,23.90
2023-03-11T19:01:41.255Z,18.20
2023-03-11T19:04:10.240Z,20.00
2023-03-11T19:06:38.862Z,17.00
2023-03-11T19:09:07.625Z,19.10
2023-03-11T19:11:36.887Z,15.20
2023-03-11T19:14:06.676Z,16.90
2023-03-11T19:16:35.312Z,17.70
2023-03-11T19:19:06.428Z,17.00
2023-03-11T19:21:36.025Z,19.10
2023-03-11T19:24:05.933Z,15.90
2023-03-11T19:26:44.863Z,19.10
2023-03-11T19:29:14.827Z,17.50
2023-03-11T19:31:47.535Z,16.10
2023-03-11T19:34:16.194Z,18.50
2023-03-11T19:36:47.008Z,17.30
2023-03-11T19:39:15.607Z,18.20
2023-03-11T19:41:44.145Z,20.10
2023-03-11T19:44:12.901Z,17.90
2023-03-11T19:46:43.189Z,19.40
2023-03-11T19:49:11.972Z,16.50
2023-03-11T19:51:49.710Z,15.00
2023-03-11T19:54:19.699Z,16.60
2023-03-11T19:56:50.851Z,15.60
2023-03-11T19:59:19.593Z,17.50
2023-03-11T20:01:48.486Z,15.70
2023-03-11T20:04:18.346Z,14.80
2023-03-11T20:06:47.202Z,16.90
2023-03-11T20:09:17.948Z,18.50
2023-03-11T20:11:50.205Z,15.90
2023-03-11T20:14:20.564Z,15.30
2023-03-11T20:16:49.406Z,14.80
2023-03-11T20:19:19.106Z,15.00
2023-03-11T20:21:47.772Z,15.80
2023-03-11T20:24:16.707Z,17.20
2023-03-11T20:26:46.669Z,17.50
2023-03-11T20:29:15.413Z,17.80
2023-03-11T20:31:45.078Z,17.50
2023-03-11T20:34:13.860Z,16.60
2023-03-11T20:36:44.446Z,15.50
2023-03-11T20:39:13.649Z,18.40
2023-03-11T20:41:43.270Z,18.30
2023-03-11T20:44:13.647Z,17.70
2023-03-11T20:46:42.907Z,14.80
2023-03-11T20:49:11.812Z,21.30
2023-03-11T20:51:41.894Z,17.30
2023-03-11T20:54:12.913Z,21.00
2023-03-11T20:56:42.061Z,16.10
2023-03-11T20:59:14.888Z,17.30
2023-03-11T21:01:43.865Z,20.00
2023-03-11T21:04:13.947Z,18.20
2023-03-11T21:06:52.799Z,15.40
2023-03-11T21:09:22.265Z,15.70
2023-03-11T21:11:51.217Z,19.30
2023-03-11T21:14:20.399Z,17.80
2023-03-11T21:16:49.300Z,19.30
2023-03-11T21:19:18.399Z,22.30
2023-03-11T21:21:48.807Z,14.60
2023-03-11T21:24:18.505Z,15.80
2023-03-11T21:26:49.111Z,19.10
2023-03-11T21:29:23.383Z,17.70
2023-03-11T21:31:52.266Z,16.50
2023-03-11T21:34:21.124Z,19.40
2023-03-11T21:36:53.672Z,13.70
2023-03-11T21:39:22.671Z,13.30
2023-03-11T21:41:55.036Z,15.90
2023-03-11T21:44:23.605Z,17.40
2023-03-11T21:46:52.465Z,13.60
2023-03-11T21:49:22.539Z,16.20
2023-03-11T21:51:51.812Z,15.30
2023-03-11T21:54:20.495Z,18.30
2023-03-11T21:56:49.271Z,16.00
2023-03-11T21:59:18.022Z,13.90
2023-03-11T22:01:50.704Z,15.60
2023-03-11T22:04:19.850Z,16.10
2023-03-11T22:06:48.844Z,17.60
2023-03-11T22:09:18.338Z,20.90
2023-03-11T22:11:47.953Z,25.70
2023-03-11T22:14:16.814Z,23.00
2023-03-11T22:16:45.712Z,26.70
2023-03-11T22:19:15.336Z,24.70
2023-03-11T22:21:44.660Z,24.70
2023-03-11T22:24:13.533Z,23.80
2023-03-11T22:26:42.198Z,25.90
2023-03-11T22:29:13.428Z,21.30
2023-03-11T22:31:44.641Z,24.50
2023-03-11T22:34:13.877Z,23.20
2023-03-11T22:36:42.975Z,26.20
2023-03-11T22:39:11.965Z,27.00
2023-03-11T22:41:41.293Z,21.60
2023-03-11T22:44:09.856Z,24.10
2023-03-11T22:46:39.361Z,18.70
2023-03-11T22:49:09.914Z,19.20
2023-03-11T22:51:38.553Z,21.50
2023-03-11T22:54:07.399Z,23.50
2023-03-11T22:56:36.173Z,20.40
2023-03-11T22:59:06.498Z,21.40
2023-03-11T23:01:35.231Z,19.70
2023-03-11T23:04:05.572Z,17.80
2023-03-11T23:06:35.525Z,19.70
2023-03-11T23:09:05.084Z,18.20
2023-03-11T23:11:34.783Z,19.40
2023-03-11T23:14:04.124Z,17.40
2023-03-11T23:16:33.084Z,24.30
2023-03-11T23:19:01.820Z,22.00
2023-03-11T23:21:32.133Z,22.00
2023-03-11T23:24:01.627Z,19.70
2023-03-11T23:26:30.497Z,22.20
2023-03-11T23:28:59.527Z,23.10
2023-03-11T23:31:28.741Z,24.50
2023-03-11T23:33:58.513Z,19.60
2023-03-11T23:36:30.596Z,19.50
2023-03-11T23:39:03.345Z,19.00
2023-03-11T23:41:32.507Z,22.90
2023-03-11T23:44:01.264Z,22.20
2023-03-11T23:46:30.668Z,17.80
2023-03-11T23:49:01.655Z,19.50
2023-03-11T23:51:30.398Z,15.90
2023-03-11T23:53:59.303Z,17.10
2023-03-11T23:56:31.408Z,21.50
2023-03-11T23:59:00.162Z,15.60
